Latest Coastal Weather Observations for Wilsons Promontory

IDT60701

Issued at 9:42 pm EST Wednesday 24 May 2017 (issued every 10 minutes, with the page automatically refreshed every 10 minutes)

About coastal observations | Map of coastal stations | Coastal observations for TAS | Marine services | Other Formats
Station Details ID: 085096 Name: WILSONS PROMONTORY LIGHTHOUSE Lat: -39.13 Lon: 146.42 Height: 95.0 m
Data from the previous 72 hours. | See also: Recent months at Wilsons Promontory
Date/Time
EST
Temp
°C
Wind Pressure Rain since
9am
mm
Weather Cloud Vis
km
Sea
Height
m
Swell
Dir  Spd
kts
Gust
kts
hPa Trend Height
m
Period
s
Dir
24/09:40pm 13.1 W 17 27 1016.9 - 6.4 - - - - - - -
24/09:30pm 13.0 W 19 26 1016.8 - 6.4 - - - - - - -
24/09:00pm 12.6 W 19 32 1016.5 - 6.4 - - - - - - -
24/08:50pm 12.7 W 19 29 1016.4 - 6.4 - - - - - - -
24/08:30pm 12.7 W 23 31 1016.1 - 6.4 - - - - - - -
24/08:00pm 12.1 W 22 36 1016.1 - 6.0 - - - - - - -
24/07:30pm 12.9 W 22 35 1015.9 - 6.0 - - - - - - -
24/07:00pm 12.6 W 24 34 1015.3 - 6.0 - - - - - - -
24/06:30pm 13.1 W 21 34 1015.3 - 5.8 - - - - - - -
24/06:03pm 12.6 W 27 37 1015.0 - 5.8 - - - - - - -
24/06:00pm 12.7 W 28 37 1014.9 - 5.8 - - - - - - -
24/05:30pm 13.4 W 22 32 1014.3 - 5.4 - - - - - - -
24/05:00pm 13.2 W 28 38 1014.0 - 5.4 - - - - - - -
24/04:40pm 13.5 W 27 37 1013.7 - 5.2 - - - - - - -
24/04:30pm 13.5 W 26 35 1013.6 - 5.2 - - - - - - -
24/04:01pm 13.3 W 31 41 1013.1 - 5.2 - - - - - - -
24/03:30pm 13.6 W 26 39 1012.8 - 5.2 - - - - - - -
24/03:03pm 13.5 W 30 40 1012.1 - 5.2 - - - - - - -
24/03:00pm 13.4 W 30 39 1012.1 - 5.2 - - - - - - -
24/02:30pm 13.0 W 28 39 1011.9 - 5.2 - - - - - - -
24/02:02pm 12.0 W 28 38 1011.5 - 5.2 - - - - - - -
24/02:00pm 12.3 W 29 38 1011.5 - 5.2 - - - - - - -
24/01:31pm 13.1 W 27 37 1011.2 - 5.2 - - - - - - -
24/01:30pm 13.2 W 26 35 1011.3 - 5.2 - - - - - - -
24/01:00pm 13.0 W 27 38 1010.8 - 5.2 - - - - - - -
24/12:38pm 13.2 W 27 37 1011.0 - 5.2 - - - - - - -
24/12:30pm 13.1 W 28 37 1011.2 - 5.2 - - - - - - -
24/12:00pm 12.5 W 26 39 1011.6 - 5.2 - - - - - - -
24/11:30am 12.4 W 20 31 1012.0 - 5.0 - - - - - - -
24/11:00am 12.7 W 24 35 1011.6 - 2.6 - - - - - - -
24/10:30am 12.5 W 27 40 1011.5 - 2.2 - - - - - - -
24/10:00am 12.7 W 24 36 1011.4 - 1.4 - - - - - - -
24/09:30am 12.9 W 23 38 1010.9 - 0.6 - - - - - - -
24/09:01am 13.8 W 21 31 1011.1 - 0.0 - - - - - - -
24/09:00am 13.8 W 22 31 1011.1 - 14.8 - - - - - - -
24/08:30am 13.2 W 23 34 1011.0 - 14.8 - - - - - - -
24/08:00am 13.3 W 24 37 1010.3 - 14.8 - - - - - - -
24/07:37am 13.2 W 19 30 1010.6 - 14.8 - - - - - - -
24/07:30am 13.1 W 19 27 1010.5 - 14.8 - - - - - - -
24/07:05am 12.5 W 18 29 1010.4 - 14.4 - - - - - - -
24/07:00am 12.9 W 18 25 1010.4 - 14.2 - - - - - - -
24/06:34am 13.6 W 20 30 1009.9 - 13.0 - - - - - - -
24/06:30am 13.6 W 21 29 1009.9 - 12.6 - - - - - - -
24/06:00am 13.4 W 23 33 1009.6 - 12.6 - - - - - - -
24/05:33am 13.3 W 22 32 1009.5 - 12.6 - - - - - - -
24/05:30am 13.3 W 21 30 1009.5 - 12.6 - - - - - - -
24/05:11am 13.2 W 15 27 1009.7 - 12.6 - - - - - - -
24/05:00am 13.0 W 13 25 1009.8 - 12.6 - - - - - - -
24/04:53am 12.9 W 15 25 1009.7 - 12.6 - - - - - - -
24/04:30am 13.6 WNW 14 23 1009.7 - 9.8 - - - - - - -
24/04:00am 13.6 NW 12 21 1010.2 - 9.6 - - - - - - -
24/03:30am 13.9 WNW 12 21 1010.3 - 9.2 - - - - - - -
24/03:00am 14.0 NNW 7 13 1010.3 - 9.2 - - - - - - -
24/02:30am 14.1 NNW 7 15 1010.3 - 9.2 - - - - - - -
24/02:00am 14.0 NNW 7 15 1010.4 - 9.2 - - - - - - -
24/01:30am 14.1 N 8 22 1010.6 - 9.2 - - - - - - -
24/01:00am 14.0 NW 9 23 1011.0 - 9.2 - - - - - - -
24/12:30am 14.3 NNW 9 18 1011.0 - 8.2 - - - - - - -
24/12:00am 14.3 WNW 14 29 1011.7 - 7.6 - - - - - - -
 
Date/Time
EST
Temp
°C
Wind Pressure Rain since
9am
mm
Weather Cloud Vis
km
Sea
Height
m
Swell
Dir  Spd
kts
Gust
kts
hPa Trend Height
m
Period
s
Dir
23/11:55pm 14.5 WNW 15 26 1011.8 - 5.4 - - - - - - -
23/11:30pm 15.8 N 4 9 1012.1 - 0.6 - - - - - - -
23/11:00pm 15.8 NNW 7 12 1012.6 - 0.6 - - - - - - -
23/10:30pm 15.9 NNW 10 18 1012.8 - 0.6 - - - - - - -
23/10:00pm 15.8 N 6 13 1013.1 - 0.6 - - - - - - -
23/09:30pm 15.5 N 10 16 1013.0 - 0.6 - - - - - - -
23/09:00pm 14.9 N 9 10 1013.0 - 0.6 - - - - - - -
23/08:30pm 15.7 NNW 7 9 1013.2 - 0.6 - - - - - - -
23/07:30pm 15.7 NW 7 9 1013.5 - 0.6 - - - - - - -
23/07:00pm 15.6 NW 4 9 1013.5 - 0.6 - - - - - - -
23/06:30pm 15.7 NW 7 11 1013.8 - 0.6 - - - - - - -
23/06:00pm 15.6 NW 5 10 1013.7 - 0.6 - - - - - - -
23/05:30pm 14.8 WNW 6 8 1013.6 - 0.6 - - - - - - -
23/05:00pm 15.1 W 5 6 1013.5 - 0.6 - - - - - - -
23/04:30pm 15.4 WSW 6 8 1013.4 - 0.6 - - - - - - -
23/04:00pm 14.8 N 9 11 1013.3 - 0.6 - - - - - - -
23/03:30pm 15.0 N 9 11 1013.5 - 0.6 - - - - - - -
23/03:00pm 15.7 NNE 6 10 1013.6 - 0.6 - - - - - - -
23/02:30pm 16.5 NW 16 19 1013.3 - 0.4 - - - - - - -
23/02:00pm 15.5 NW 15 28 1013.5 - 0.2 - - - - - - -
23/01:45pm 16.1 WNW 15 25 1013.4 - 0.0 - - - - - - -
23/12:30pm 18.5 NNW 13 26 1014.3 - 0.0 - - - - - - -
23/12:00pm 18.5 NNW 15 27 1014.7 - 0.0 - - - - - - -
23/11:30am 18.5 NNW 19 30 1014.8 - 0.0 - - - - - - -
23/11:01am 18.4 NNW 20 30 1015.5 - 0.0 - - - - - - -
23/11:00am 18.4 NNW 21 30 1015.5 - 0.0 - - - - - - -
23/10:30am 17.5 NW 16 30 1015.7 - 0.0 - - - - - - -
23/10:00am 17.5 NNW 18 30 1015.9 - 0.0 - - - - - - -
23/09:30am 17.4 NNW 15 27 1016.3 - 0.0 - - - - - - -
23/09:28am 17.3 NNW 15 27 1016.0 - 0.0 - - - - - - -
23/09:00am 17.5 NW 12 22 1016.2 - 0.0 - - - - - - -
23/08:30am 18.4 WNW 15 28 1016.3 - 0.0 - - - - - - -
23/08:27am 18.4 WNW 15 28 1016.3 - 0.0 - - - - - - -
23/08:00am 18.7 NW 12 24 1016.4 - 0.0 - - - - - - -
23/07:31am 18.6 NW 15 25 1015.9 - 0.0 - - - - - - -
23/07:30am 18.5 NW 14 25 1016.1 - 0.0 - - - - - - -
23/07:00am 18.7 NW 18 32 1015.9 - 0.0 - - - - - - -
23/06:30am 18.4 NW 17 27 1015.9 - 0.0 - - - - - - -
23/06:00am 18.5 NW 16 29 1015.7 - 0.0 - - - - - - -
23/05:30am 18.7 NW 18 30 1015.7 - 0.0 - - - - - - -
23/05:00am 18.1 NNW 17 27 1016.0 - 0.0 - - - - - - -
23/04:54am 18.0 NNW 15 27 1015.9 - 0.0 - - - - - - -
23/04:30am 17.6 NNE 7 22 1016.6 - 0.0 - - - - - - -
23/03:30am 16.7 WNW 8 15 1016.9 - 0.0 - - - - - - -
23/03:00am 16.1 WNW 7 11 1016.9 - 0.0 - - - - - - -
23/02:30am 14.9 W 8 13 1016.9 - 0.0 - - - - - - -
23/02:00am 15.3 WSW 8 11 1016.8 - 0.0 - - - - - - -
23/01:30am 15.2 NW 5 10 1016.9 - 0.0 - - - - - - -
23/01:00am 15.1 NNE 11 14 1017.0 - 0.0 - - - - - - -
23/12:30am 15.3 NNE 13 17 1016.8 - 0.0 - - - - - - -
23/12:00am 15.3 NNE 14 18 1017.0 - 0.0 - - - - - - -
 
Date/Time
EST
Temp
°C
Wind Pressure Rain since
9am
mm
Weather Cloud Vis
km
Sea
Height
m
Swell
Dir  Spd
kts
Gust
kts
hPa Trend Height
m
Period
s
Dir
22/11:30pm 15.5 NNE 13 15 1017.8 - 0.0 - - - - - - -
22/11:00pm 15.6 NNE 15 18 1018.1 - 0.0 - - - - - - -
22/10:30pm 15.9 NNE 10 13 1018.4 - 0.0 - - - - - - -
22/10:00pm 15.3 NNE 11 15 1018.5 - 0.0 - - - - - - -
22/09:30pm 15.6 NNE 15 20 1018.0 - 0.0 - - - - - - -
22/09:00pm 15.3 NE 12 15 1018.4 - 0.0 - - - - - - -
22/08:30pm 15.5 NE 12 15 1018.3 - 0.0 - - - - - - -
22/08:00pm 15.3 NNE 11 14 1018.7 - 0.0 - - - - - - -
22/07:30pm 15.5 NNE 12 16 1018.4 - 0.0 - - - - - - -
22/07:00pm 15.4 NNE 12 15 1018.1 - 0.0 - - - - - - -
22/06:30pm 15.4 NNE 10 12 1018.4 - 0.0 - - - - - - -
22/06:00pm 15.8 NNE 11 13 1018.1 - 0.0 - - - - - - -
22/05:30pm 15.4 NNE 11 14 1018.1 - 0.0 - - - - - - -
22/05:00pm 15.2 NNE 11 13 1018.2 - 0.0 - - - - - - -
22/04:30pm 16.1 N 8 9 1018.5 - 0.0 - - - - - - -
22/03:30pm 16.7 NNE 8 10 1018.3 - 0.0 - - - - - - -
22/03:00pm 17.7 NNE 8 10 1018.2 - 0.0 - - - - - - -
22/02:30pm 17.9 NNE 6 8 1018.6 - 0.0 - - - - - - -
22/02:00pm 17.7 NNE 8 10 1018.7 - 0.0 - - - - - - -
22/01:30pm 17.5 NNE 7 9 1019.2 - 0.0 - - - - - - -
22/01:00pm 17.6 NNE 8 10 1019.6 - 0.0 - - - - - - -
22/12:30pm 17.9 NNE 5 9 1019.9 - 0.0 - - - - - - -
22/12:00pm 18.5 N 5 10 1020.4 - 0.0 - - - - - - -
22/11:30am 18.7 NW 13 16 1020.5 - 0.0 - - - - - - -
22/11:00am 18.4 NW 14 19 1020.8 - 0.0 - - - - - - -
22/10:30am 18.3 NW 15 20 1021.0 - 0.0 - - - - - - -
22/10:00am 17.8 NW 15 21 1021.0 - 0.0 - - - - - - -
22/09:30am 17.5 WNW 17 25 1021.2 - 0.0 - - - - - - -
22/09:00am 17.3 NW 18 24 1021.2 - 0.0 - - - - - - -
22/08:30am 17.3 NW 19 25 1021.3 - 0.0 - - - - - - -
22/08:00am 17.1 NW 17 26 1021.1 - 0.0 - - - - - - -
22/07:30am 17.0 NW 17 21 1020.8 - 0.0 - - - - - - -
22/07:00am 16.8 NW 17 24 1020.6 - 0.0 - - - - - - -
22/06:30am 16.8 NW 17 22 1020.4 - 0.0 - - - - - - -
22/06:00am 16.8 NW 17 22 1020.3 - 0.0 - - - - - - -
22/05:30am 16.5 NW 18 23 1020.2 - 0.0 - - - - - - -
22/05:00am 16.5 NW 18 24 1020.1 - 0.0 - - - - - - -
22/04:30am 16.4 NW 19 25 1020.0 - 0.0 - - - - - - -
22/04:10am 16.4 NW 19 29 1020.0 - 0.0 - - - - - - -
22/04:00am 16.4 NW 18 25 1020.0 - 0.0 - - - - - - -
22/03:30am 16.4 NW 20 27 1020.0 - 0.0 - - - - - - -
22/03:00am 16.2 NW 19 28 1020.0 - 0.0 - - - - - - -
22/02:33am 16.1 NW 20 30 1020.0 - 0.0 - - - - - - -
22/02:30am 16.1 NW 20 27 1020.0 - 0.0 - - - - - - -
22/02:00am 16.2 NW 20 28 1020.0 - 0.0 - - - - - - -
22/01:50am 16.2 NW 18 29 1020.0 - 0.0 - - - - - - -
22/01:30am 16.1 NW 19 28 1020.0 - 0.0 - - - - - - -
22/01:01am 16.2 NW 17 27 1020.2 - 0.0 - - - - - - -
22/01:00am 16.2 NW 18 27 1020.1 - 0.0 - - - - - - -
22/12:33am 16.3 NW 19 29 1019.9 - 0.0 - - - - - - -
22/12:30am 16.1 NW 20 28 1020.1 - 0.0 - - - - - - -
22/12:12am 16.2 NW 19 29 1020.2 - 0.0 - - - - - - -
22/12:00am 16.1 NW 20 28 1020.1 - 0.0 - - - - - - -
 
Date/Time
EST
Temp
°C
Wind Pressure Rain since
9am
mm
Weather Cloud Vis
km
Sea
Height
m
Swell
Dir  Spd
kts
Gust
kts
hPa Trend Height
m
Period
s
Dir
21/11:45pm 16.2 NW 17 28 1020.2 - 0.0 - - - - - - -
21/11:30pm 16.0 NW 19 27 1020.3 - 0.0 - - - - - - -
21/11:00pm 15.9 NW 19 28 1020.1 - 0.0 - - - - - - -
21/10:30pm 15.7 NW 16 24 1020.2 - 0.0 - - - - - - -
21/10:00pm 15.8 NW 17 27 1020.2 - 0.0 - - - - - - -

Other Formats:

Comma delimited format used in spreadsheet applications
http://www.bom.gov.au/fwo/IDT60701/IDT60701.94893.axf

JavaScript Object Notation format (JSON) in row-major order
http://www.bom.gov.au/fwo/IDT60701/IDT60701.94893.json